South Reno (Wolf Run), Nevada Weather observations

Data are for observation ending at time listed.
 Day   Time    Ave.   Ave.  Ave.  Vector   Max.   Stn.    Total    Solar   Ave.  
  of    of     Air    Rel.  Wind   Wind    Wind   Baro.  Precip.   Rad.    Soil  
Year   Day     Temp.  Hum.  Speed  Dir.    Gust   Pres.                    Temp. 
2016   (PST)    F      %     mph   deg.    mph     mb.     in.     W/m2     F   
------------------------------------------------------------------------------
 243   10:30   80.2    11    8.4   216     13.9  99999.0    0.00     352    66.3
 243   10:40   80.5    11    9.1   221     14.0  99999.0    0.00     450    66.4
 243   10:50   80.9    12    7.9   218     12.3  99999.0    0.00     414    66.5
 243   11:00   80.7    12    6.9   220     11.5  99999.0    0.00     366    66.5
 243   11:10   81.4    12    7.8   231     11.8  99999.0    0.00     669    66.6
 243   11:20   82.4    11    7.6   215     13.7  99999.0    0.00    1067    66.7
 243   11:30   83.4    12    7.0   202     13.1  99999.0    0.00    1116    66.7
 243   11:40   84.5    11    7.2   232     14.3  99999.0    0.00    1239    66.8
 243   11:50   85.2    11    8.7   233     14.6  99999.0    0.00    1149    66.9
 243   12:00   85.1    11    8.2   229     13.3  99999.0    0.00    1076    66.9
 243   12:10   84.3    12    9.7   231     16.0  99999.0    0.00     988    67.0
 243   12:20   84.5    11    9.8   228     18.6  99999.0    0.00     952    67.1
 243   12:30   84.8    11    7.8   232     14.8  99999.0    0.00     924    67.2
 243   12:40   84.7    10    8.0   205     13.6  99999.0    0.00     910    67.3
 243   12:50   86.0    10    6.9   200     12.1  99999.0    0.00     912    67.4
 243   13:00   85.8    11    6.7   234     12.5  99999.0    0.00     894    67.6
 243   13:10   85.2    12    7.4   245     16.6  99999.0    0.00     875    67.7
 243   13:20   85.8    11    7.5   240     14.0  99999.0    0.00     862    67.8
 243   13:30   85.2    12    8.3   239     14.2  99999.0    0.00     849    67.9
 243   13:40   85.8    10    8.9   229     17.5  99999.0    0.00     832    68.0
 243   13:50   85.9    10    9.3   234     15.7  99999.0    0.00     818    68.1
 243   14:00   86.1    10   10.5   235     17.9  99999.0    0.00     799    68.3
 243   14:10   85.7    10   10.1   233     16.6  99999.0    0.00     781    68.4
 243   14:20   86.0    10    9.3   234     18.9  99999.0    0.00     763    68.5
 243   14:30   85.9    10   10.1   230     16.6  99999.0    0.00     740    68.5
 243   14:40   85.7    11    8.9   243     16.5  99999.0    0.00     714    68.6
 243   14:50   85.3    11    9.6   239     17.0  99999.0    0.00     688    68.7
 243   15:00   85.0    11    9.5   239     14.2  99999.0    0.00     656    68.8
 243   15:10   85.4    12    7.6   248     15.3  99999.0    0.00     637    68.9
 243   15:20   85.1    11    8.0   247     13.0  99999.0    0.00     609    68.9
 243   15:30   85.1    12    7.3   249     15.2  99999.0    0.00     578    69.0
 243   15:40   84.9    12    7.5   244     14.8  99999.0    0.00     547    69.0
 243   15:50   84.7    11    8.6   246     14.6  99999.0    0.00     517    69.1
 243   16:00   84.4    11    8.0   240     14.1  99999.0    0.00     484    69.1
 243   16:10   84.1    11   10.2   238     16.1  99999.0    0.00     453    69.2
 243   16:20   83.9    12    7.7   243     13.1  99999.0    0.00     421    69.2
 243   16:30   84.0    12    6.6   243     14.0  99999.0    0.00     388    69.2
 243   16:40   83.4    12    8.6   234     14.8  99999.0    0.00     355    69.2
 243   16:50   83.2    11    7.2   243     12.6  99999.0    0.00     325    69.2
 243   17:00   82.3    11    7.4   235     12.8  99999.0    0.00     272    69.3
 243   17:10   82.4    12    6.8   234     13.5  99999.0    0.00      75    69.3
 243   17:20   81.8    12    7.1   235     11.0  99999.0    0.00      35    69.2
 243   17:30   81.6    12    8.0   226     12.3  99999.0    0.00      32    69.2
 243   17:40   81.2    12    6.7   227     11.0  99999.0    0.00      28    69.2
 243   17:50   80.9    12    5.3   217     10.5  99999.0    0.00      30    69.2
 243   18:00   80.4    12    6.9   217     12.3  99999.0    0.00      28    69.2
 243   18:10   79.4    13    4.4   203      8.0  99999.0    0.00      20    69.1
 243   18:20   78.7    12    5.3   222      8.8  99999.0    0.00      16    69.1
 243   18:30   78.5    13    4.9   220      9.5  99999.0    0.00      10    69.0
 243   18:40   78.0    13    6.6   236     13.7  99999.0    0.00       5    69.0
 243   18:50   77.6    13    6.3   236     10.0  99999.0    0.00       2    69.0
 243   19:00   77.1    13    5.5   229      8.0  99999.0    0.00       0    68.9
 243   19:10   76.8    13    3.9   191      6.1  99999.0    0.00       0    68.8
 243   19:20   75.5    14    5.0   179      8.3  99999.0    0.00       0    68.8
 243   19:30   75.6    14    6.0   205     11.6  99999.0    0.00       0    68.7
 243   19:40   75.7    14    6.8   220     10.1  99999.0    0.00       0    68.7
 243   19:50   72.1    18    8.1   241     15.1  99999.0    0.00       0    68.6
 243   20:00   75.2    12    7.9   235     13.6  99999.0    0.00       0    68.6
 243   20:10   74.3    15    7.2   234     11.8  99999.0    0.00       0    68.5
 243   20:20   72.9    14    6.4   238     10.4  99999.0    0.00       0    68.4
 243   20:30   74.9    12    4.9   232      9.8  99999.0    0.00       0    68.3
 243   20:40   75.5    12    5.0   215      8.7  99999.0    0.00       0    68.2
 243   20:50   75.9    12    4.6   198     11.0  99999.0    0.00       0    68.1
 243   21:00   75.6    12    4.6   199     10.4  99999.0    0.00       0    68.0
 243   21:10   71.1    20    0.7   252      6.5  99999.0    0.00       0    67.9
 243   21:20   69.8    19    2.6   169      6.4  99999.0    0.00       0    67.8
 243   21:30   71.9    16    3.9   203      6.1  99999.0    0.00       0    67.7
 243   21:40   71.9    16    5.0   230      8.3  99999.0    0.00       0    67.6
 243   21:50   70.6    18    1.8   249      6.3  99999.0    0.00       0    67.4
 243   22:00   69.5    21    0.8   295      5.4  99999.0    0.00       0    67.3
 243   22:10   68.8    21    1.3   297      5.6  99999.0    0.00       0    67.2
 243   22:20   68.3    23    0.9   278      6.3  99999.0    0.00       0    67.2
 243   22:30   66.4    32    1.0   289      6.2  99999.0    0.00       1    67.1
 243   22:40   66.4    26    2.3   302      6.4  99999.0    0.00       0    67.0
 243   22:50   67.5    24    0.2   295      4.3  99999.0    0.00       0    66.9
 243   23:00   67.5    23    1.2   305      5.3  99999.0    0.00       0    66.8
 243   23:10   68.0    25    0.3   298      2.9  99999.0    0.00       0    66.8
 243   23:20   66.2    27    0.1   283      1.5  99999.0    0.00       0    66.7
 243   23:30   66.5    25    3.2   249      7.2  99999.0    0.00       0    66.7
 243   23:40   68.1    22    1.8   314      5.8  99999.0    0.00       0    66.6
 243   23:50   68.6    22    0.6   318      3.7  99999.0    0.00       0    66.6
 244    0:00   68.8    22    1.9   321      3.4  99999.0    0.00       0    66.5
 244    0:10   68.2    22    0.7   320      4.2  99999.0    0.00       0    66.5
 244    0:20   69.3    21    1.1   318      3.3  99999.0    0.00       0    66.4
 244    0:30   67.9    22    1.4   224      2.9  99999.0    0.00       0    66.4
 244    0:40   66.9    24    0.4   282      3.9  99999.0    0.00       0    66.3
 244    0:50   67.5    21    2.4   242      5.8  99999.0    0.00       0    66.3
 244    1:00   69.1    18    1.5   214      2.6  99999.0    0.00       0    66.3
 244    1:10   66.6    23    1.4   247      5.3  99999.0    0.00       0    66.2
 244    1:20   66.6    22    0.3   256      1.8  99999.0    0.00       0    66.2
 244    1:30   67.3    20    1.6    13      6.1  99999.0    0.00       0    66.1
 244    1:40   66.8    21    2.2   228      7.2  99999.0    0.00       0    66.1
 244    1:50   65.5    24    1.2   235      3.4  99999.0    0.00       0    66.1
 244    2:00   65.7    23    0.5   310      2.3  99999.0    0.00       0    66.0
 244    2:10   65.9    22    0.5   318      2.0  99999.0    0.00       0    66.0
 244    2:20   66.7    22    0.6   314      2.6  99999.0    0.00       0    66.0
 244    2:30   66.5    21    2.7   247      6.8  99999.0    0.00       0    65.9
 244    2:40   65.8    22    1.6   222      3.1  99999.0    0.00       0    65.9
 244    2:50   66.3    21    0.1   230      1.2  99999.0    0.00       0    65.9
 244    3:00   64.9    23    0.7   224      2.6  99999.0    0.00       0    65.8
 244    3:10   64.3    22    1.3   222      4.0  99999.0    0.00       0    65.8
 244    3:20   65.4    21    0.7   221      2.4  99999.0    0.00       0    65.8
 244    3:30   65.2    22    0.6   227      2.2  99999.0    0.00       0    65.8
 244    3:40   62.7    25    1.9   230      3.4  99999.0    0.00       0    65.7
 244    3:50   62.5    25    1.3   232      3.1  99999.0    0.00       0    65.7
 244    4:00   61.9    26    1.3   236      2.3  99999.0    0.00       0    65.7
 244    4:10   61.3    28    2.3   237      4.6  99999.0    0.00       0    65.6
 244    4:20   61.6    27    1.1   234      4.8  99999.0    0.00       0    65.6
 244    4:30   61.6    27    2.7   235      6.3  99999.0    0.00       0    65.6
 244    4:40   61.6    28    1.8   241      5.3  99999.0    0.00       0    65.5
 244    4:50   62.2    27    3.3   247      6.9  99999.0    0.00       0    65.5
 244    5:00   62.0    27    1.7   244      6.0  99999.0    0.00       0    65.5
 244    5:10   61.6    26    3.5   235      6.6  99999.0    0.00       0    65.4
 244    5:20   61.4    26    1.1   238      2.3  99999.0    0.00       1    65.4
 244    5:30   61.0    26    1.0   226      2.1  99999.0    0.00       2    65.4
 244    5:40   62.0    26    2.5   208      4.5  99999.0    0.00       4    65.3
 244    5:50   61.1    28    2.2   241      5.3  99999.0    0.00      24    65.3
 244    6:00   61.5    29    1.8   242      5.0  99999.0    0.00      42    65.2
 244    6:10   62.2    29    1.8   244      4.5  99999.0    0.00      44    65.2
 244    6:20   61.4    30    1.9   238      4.5  99999.0    0.00      40    65.2
 244    6:30   61.0    31    1.2   251      4.6  99999.0    0.00      64    65.1
 244    6:40   62.8    30    1.2   238      3.8  99999.0    0.00     102    65.1
 244    6:50   64.4    28    1.1   236      4.3  99999.0    0.00      91    65.0
 244    7:00   65.0    28    1.0   222      2.7  99999.0    0.00     100    65.0
 244    7:10   65.0    30    0.8   236      2.1  99999.0    0.00      97    65.0
 244    7:20   65.3    31    0.4   220      2.3  99999.0    0.00     153    64.9
 244    7:30   66.9    26    0.6   215      2.3  99999.0    0.00     128    64.9
 244    7:40   68.7    26    0.7   246      3.4  99999.0    0.00     244    64.9
 244    7:50   69.7    25    0.1   184      0.7  99999.0    0.00     174    64.9
 244    8:00   73.1    21    0.6   116      2.3  99999.0    0.00     468    64.8
 244    8:10   73.3    20    0.9   342      2.5  99999.0    0.00     235    64.8
 244    8:20   74.6    19    1.6    29      3.3  99999.0    0.00     539    64.8
 244    8:30   74.8    19    2.8    32      5.0  99999.0    0.00     558    64.8
 244    8:40   74.7    19    3.8    31      6.3  99999.0    0.00     582    64.8
 244    8:50   74.9    19    4.4    26      8.1  99999.0    0.00     595    64.8
 244    9:00   76.3    19    3.3    62      5.8  99999.0    0.00     634    64.8
 244    9:10   77.2    19    2.3    64      8.0  99999.0    0.00     660    64.9
 244    9:20   79.7    19    1.8   168      8.2  99999.0    0.00     684    64.9
 244    9:30   79.2    20    5.9   176      9.5  99999.0    0.00     708    65.0
 244    9:40   78.9    20    6.4   199     11.5  99999.0    0.00     729    65.0
 244    9:50   79.2    19    6.2   183     11.2  99999.0    0.00     750    65.1
 244   10:00   79.6    19    7.1   192     13.8  99999.0    0.00     771    65.1
 244   10:10   80.0    18    7.8   166     13.1  99999.0    0.00     787    65.2
 244   10:20   80.6    18    7.9   186     14.2  99999.0    0.00     804    65.3

Return to South Reno, Nevada graphs page.


Western Regional Climate Center,wrcc@dri.edu